createdAt,value
2022-10-29T00:01:32.318Z,38.03
2022-10-29T00:06:35.373Z,38.47
2022-10-29T00:11:39.746Z,38.42
2022-10-29T00:16:42.756Z,37.88
2022-10-29T00:21:45.733Z,37.88
2022-10-29T00:26:50.448Z,38.40
2022-10-29T00:31:53.806Z,37.70
2022-10-29T00:36:56.796Z,37.92
2022-10-29T00:42:01.132Z,37.35
2022-10-29T00:47:13.696Z,38.15
2022-10-29T00:52:19.188Z,37.33
2022-10-29T00:57:28.186Z,37.97
2022-10-29T01:02:34.422Z,37.38
2022-10-29T01:07:37.435Z,38.60
2022-10-29T01:12:58.167Z,38.95
2022-10-29T01:18:12.575Z,37.75
2022-10-29T01:23:41.177Z,37.70
2022-10-29T01:29:06.162Z,37.80
2022-10-29T01:34:17.020Z,37.42
2022-10-29T01:39:27.380Z,37.65
2022-10-29T01:44:36.312Z,37.05
2022-10-29T01:49:43.436Z,37.45
2022-10-29T01:54:47.678Z,38.30
2022-10-29T01:59:56.118Z,37.60
2022-10-29T02:05:13.094Z,37.55
2022-10-29T02:10:27.572Z,37.97
2022-10-29T02:15:35.358Z,37.40
2022-10-29T02:20:44.846Z,37.45
2022-10-29T02:25:47.815Z,37.03
2022-10-29T02:30:51.359Z,37.35
2022-10-29T02:35:55.618Z,37.55
2022-10-29T02:40:58.589Z,37.95
2022-10-29T02:46:13.129Z,37.40
2022-10-29T02:51:18.670Z,38.10
2022-10-29T02:56:21.916Z,40.60
2022-10-29T03:01:25.152Z,37.38
2022-10-29T03:06:35.476Z,37.45
2022-10-29T03:11:38.412Z,37.42
2022-10-29T03:16:41.492Z,38.20
2022-10-29T03:21:45.933Z,37.50
2022-10-29T03:26:48.921Z,37.63
2022-10-29T03:31:51.825Z,37.75
2022-10-29T03:36:56.303Z,38.30
2022-10-29T03:41:59.259Z,37.33
2022-10-29T03:47:02.201Z,37.58
2022-10-29T03:52:06.711Z,37.03
2022-10-29T03:57:09.820Z,37.42
2022-10-29T04:02:13.127Z,37.83
2022-10-29T04:07:17.500Z,37.42
2022-10-29T04:12:20.440Z,36.85
2022-10-29T04:17:23.350Z,37.25
2022-10-29T04:33:13.658Z,37.50
2022-10-29T04:38:17.959Z,37.42
2022-10-29T04:43:21.430Z,36.83
2022-10-29T04:48:26.120Z,36.90
2022-10-29T04:53:30.654Z,38.83
2022-10-29T04:58:33.592Z,37.45
2022-10-29T05:03:36.815Z,37.97
2022-10-29T05:08:41.181Z,37.83
2022-10-29T05:13:45.474Z,36.63
2022-10-29T05:18:49.245Z,37.17
2022-10-29T05:23:56.777Z,36.78
2022-10-29T05:28:59.745Z,37.25
2022-10-29T05:34:02.657Z,36.55
2022-10-29T05:39:07.079Z,36.47
2022-10-29T05:44:10.122Z,37.60
2022-10-29T05:49:13.672Z,37.15
2022-10-29T05:54:17.977Z,41.60
2022-10-29T05:59:36.283Z,37.85
2022-10-29T06:04:39.275Z,37.05
2022-10-29T06:09:43.620Z,36.92
2022-10-29T06:14:46.582Z,36.80
2022-10-29T06:19:49.559Z,36.50
2022-10-29T06:24:54.172Z,37.10
2022-10-29T06:29:57.153Z,36.60
2022-10-29T06:35:00.119Z,37.08
2022-10-29T06:40:07.895Z,37.28
2022-10-29T06:45:11.474Z,36.35
2022-10-29T06:50:14.862Z,36.80
2022-10-29T06:55:19.268Z,37.42
2022-10-29T07:00:22.427Z,37.92
2022-10-29T07:05:25.840Z,37.85
2022-10-29T07:10:31.444Z,38.20
2022-10-29T07:15:34.431Z,37.47
2022-10-29T07:20:38.973Z,37.28
2022-10-29T07:25:43.445Z,37.50
2022-10-29T07:30:46.612Z,38.13
2022-10-29T07:35:49.551Z,38.67
2022-10-29T07:40:54.830Z,38.15
2022-10-29T07:45:57.794Z,39.17
2022-10-29T07:51:01.275Z,37.42
2022-10-29T07:56:06.077Z,38.10
2022-10-29T08:01:09.037Z,38.08
2022-10-29T08:06:12.035Z,38.53
2022-10-29T08:11:16.312Z,38.75
2022-10-29T08:16:19.258Z,38.33
2022-10-29T08:21:22.382Z,37.65
2022-10-29T08:26:26.770Z,37.90
2022-10-29T08:31:29.760Z,38.42
2022-10-29T08:36:32.771Z,38.50
2022-10-29T08:41:47.587Z,39.38
2022-10-29T08:46:53.948Z,38.20
2022-10-29T08:52:02.336Z,39.13
2022-10-29T08:57:14.712Z,38.38
2022-10-29T09:02:19.213Z,40.72
2022-10-29T09:07:37.955Z,40.03
2022-10-29T09:12:57.877Z,39.65
2022-10-29T09:18:13.055Z,38.95
2022-10-29T09:23:23.328Z,39.40
2022-10-29T09:28:37.891Z,39.60
2022-10-29T09:33:41.864Z,39.35
2022-10-29T09:38:54.486Z,39.63
2022-10-29T09:44:05.220Z,41.40
2022-10-29T09:49:32.317Z,40.80
2022-10-29T09:54:38.128Z,40.70
2022-10-29T09:59:47.955Z,40.42
2022-10-29T10:04:57.734Z,39.80
2022-10-29T10:10:02.667Z,39.38
2022-10-29T10:15:18.292Z,39.45
2022-10-29T10:20:29.287Z,39.78
2022-10-29T10:25:34.572Z,40.30
2022-10-29T10:30:39.267Z,39.80
2022-10-29T10:35:43.008Z,39.92
2022-10-29T10:40:55.113Z,40.15
2022-10-29T10:46:07.711Z,41.20
2022-10-29T10:51:15.835Z,40.30
2022-10-29T10:56:21.778Z,40.50
2022-10-29T11:01:32.211Z,40.83
2022-10-29T11:06:42.708Z,41.03
2022-10-29T11:11:52.716Z,39.65
2022-10-29T11:17:04.577Z,40.45
2022-10-29T11:22:17.559Z,40.90
2022-10-29T11:27:32.629Z,40.22
2022-10-29T11:32:57.538Z,41.33
2022-10-29T11:38:07.819Z,41.33
2022-10-29T11:43:13.147Z,39.88
2022-10-29T11:53:45.667Z,40.65
2022-10-29T11:58:56.671Z,39.72
2022-10-29T12:04:28.055Z,40.58
2022-10-29T12:09:48.836Z,40.40
2022-10-29T12:14:57.511Z,39.47
2022-10-29T12:20:07.431Z,39.42
2022-10-29T12:25:22.561Z,39.92
2022-10-29T12:30:25.687Z,39.92
2022-10-29T12:35:41.692Z,40.25
2022-10-29T12:40:47.083Z,41.42
2022-10-29T12:46:19.106Z,40.67
2022-10-29T12:51:34.850Z,39.97
2022-10-29T12:56:38.445Z,41.42
2022-10-29T13:07:25.593Z,40.85
2022-10-29T13:13:01.721Z,40.47
2022-10-29T13:18:09.200Z,40.53
2022-10-29T13:23:37.637Z,40.53
2022-10-29T13:28:50.635Z,40.25
2022-10-29T13:33:54.849Z,39.92
2022-10-29T13:39:07.294Z,40.50
2022-10-29T13:44:13.544Z,40.03
2022-10-29T13:49:20.685Z,40.15
2022-10-29T13:54:31.584Z,40.55
2022-10-29T13:59:42.589Z,40.78
2022-10-29T14:04:50.267Z,41.38
2022-10-29T14:09:57.056Z,41.05
2022-10-29T14:15:05.680Z,41.53
2022-10-29T14:20:23.373Z,41.33
2022-10-29T14:25:36.822Z,41.78
2022-10-29T14:30:40.024Z,41.95
2022-10-29T14:35:46.537Z,42.53
2022-10-29T14:40:51.173Z,41.08
2022-10-29T14:45:56.879Z,41.50
2022-10-29T14:50:59.889Z,41.90
2022-10-29T14:56:09.332Z,41.05
2022-10-29T15:01:15.828Z,42.17
2022-10-29T15:06:20.986Z,42.45
2022-10-29T15:11:36.823Z,41.40
2022-10-29T15:16:42.357Z,40.72
2022-10-29T15:21:46.320Z,41.78
2022-10-29T15:26:53.589Z,41.92
2022-10-29T15:31:58.432Z,40.55
2022-10-29T15:37:16.151Z,41.65
2022-10-29T15:42:23.674Z,42.42
2022-10-29T15:47:29.751Z,42.08
2022-10-29T15:52:34.499Z,45.38
2022-10-29T15:57:42.286Z,46.30
2022-10-29T16:02:47.427Z,47.50
2022-10-29T16:07:50.487Z,47.78
2022-10-29T16:12:55.462Z,47.92
2022-10-29T16:17:59.028Z,48.05
2022-10-29T16:23:02.193Z,46.90
2022-10-29T16:28:08.003Z,44.83
2022-10-29T16:33:12.156Z,43.03
2022-10-29T16:38:16.647Z,42.80
2022-10-29T16:43:20.858Z,42.22
2022-10-29T16:48:23.816Z,42.38
2022-10-29T16:53:26.730Z,42.05
2022-10-29T16:58:30.960Z,41.58
2022-10-29T17:03:35.277Z,42.90
2022-10-29T17:08:39.199Z,43.92
2022-10-29T17:13:43.460Z,42.53
2022-10-29T17:18:50.660Z,41.72
2022-10-29T17:23:53.621Z,41.97
2022-10-29T17:28:57.855Z,41.90
2022-10-29T17:34:00.801Z,40.10
2022-10-29T17:39:04.360Z,40.80
2022-10-29T17:44:08.583Z,40.00
2022-10-29T17:49:11.592Z,40.00
2022-10-29T17:54:14.941Z,41.13
2022-10-29T17:59:19.276Z,40.00
2022-10-29T18:04:22.191Z,40.78
2022-10-29T18:09:25.215Z,39.92
2022-10-29T18:14:29.548Z,40.30
2022-10-29T18:19:32.472Z,39.92
2022-10-29T18:24:35.373Z,40.30
2022-10-29T18:29:39.638Z,39.50
2022-10-29T18:34:42.571Z,39.15
2022-10-29T18:39:45.478Z,39.42
2022-10-29T18:44:49.747Z,39.47
2022-10-29T18:49:52.816Z,39.40
2022-10-29T18:54:55.806Z,38.08
2022-10-29T19:00:00.243Z,38.22
2022-10-29T19:05:03.154Z,39.03
2022-10-29T19:10:06.805Z,38.97
2022-10-29T19:15:12.062Z,38.88
2022-10-29T19:20:15.076Z,38.90
2022-10-29T19:25:17.976Z,38.72
2022-10-29T19:30:22.206Z,39.95
2022-10-29T19:35:25.114Z,40.70
2022-10-29T19:40:28.020Z,39.83
2022-10-29T19:45:32.245Z,42.25
2022-10-29T19:50:35.392Z,38.92
2022-10-29T19:55:42.696Z,40.50
2022-10-29T20:00:47.260Z,39.33
2022-10-29T20:05:55.792Z,39.67
2022-10-29T20:11:02.058Z,38.83
2022-10-29T20:16:10.547Z,38.90
2022-10-29T20:21:14.393Z,38.45
2022-10-29T20:26:17.383Z,38.75
2022-10-29T20:31:31.682Z,39.53
2022-10-29T20:36:36.862Z,38.22
2022-10-29T20:41:39.889Z,38.35
2022-10-29T20:46:44.112Z,38.22
2022-10-29T20:51:48.055Z,37.65
2022-10-29T20:56:50.969Z,38.63
2022-10-29T21:01:55.374Z,38.42
2022-10-29T21:06:58.419Z,38.28
2022-10-29T21:12:01.311Z,37.95
2022-10-29T21:17:06.684Z,38.97
2022-10-29T21:22:09.663Z,40.22
2022-10-29T21:27:12.669Z,39.30
2022-10-29T21:32:17.267Z,38.92
2022-10-29T21:37:20.204Z,38.55
2022-10-29T21:42:24.242Z,38.88
2022-10-29T21:47:28.473Z,37.40
2022-10-29T21:52:32.087Z,39.58
2022-10-29T21:57:35.363Z,38.70
2022-10-29T22:03:04.077Z,39.38
2022-10-29T22:08:07.596Z,39.20
2022-10-29T22:13:13.551Z,39.53
2022-10-29T22:18:19.275Z,38.45
2022-10-29T22:23:22.203Z,40.03
2022-10-29T22:28:25.173Z,40.08
2022-10-29T22:33:29.872Z,39.33
2022-10-29T22:38:32.812Z,40.47
2022-10-29T22:43:36.283Z,39.60
2022-10-29T22:48:40.584Z,40.53
2022-10-29T22:53:45.044Z,39.65
2022-10-29T22:58:48.172Z,40.25
2022-10-29T23:03:52.924Z,39.95
2022-10-29T23:08:58.227Z,39.45
2022-10-29T23:14:02.301Z,39.95
2022-10-29T23:19:07.280Z,40.00
2022-10-29T23:24:10.711Z,39.67
2022-10-29T23:29:13.604Z,39.28
2022-10-29T23:34:17.957Z,38.97
2022-10-29T23:39:20.877Z,39.10
2022-10-29T23:44:23.762Z,38.75
2022-10-29T23:49:28.458Z,39.40
2022-10-29T23:54:31.352Z,38.72
2022-10-29T23:59:36.275Z,38.75
